createdAt,value
2018-04-13T00:00:54.734Z,7.80
2018-04-13T00:01:54.911Z,7.20
2018-04-13T00:02:55.097Z,8.10
2018-04-13T00:03:55.277Z,7.90
2018-04-13T00:04:55.449Z,7.60
2018-04-13T00:05:55.619Z,5.40
2018-04-13T00:06:55.798Z,3.50
2018-04-13T00:07:55.972Z,4.80
2018-04-13T00:08:56.153Z,5.40
2018-04-13T00:09:56.336Z,4.90
2018-04-13T00:10:56.512Z,4.60
2018-04-13T00:11:56.692Z,4.30
2018-04-13T00:12:56.864Z,3.00
2018-04-13T00:13:57.040Z,2.50
2018-04-13T00:14:57.222Z,2.40
2018-04-13T00:15:57.403Z,2.60
2018-04-13T00:16:57.589Z,2.30
2018-04-13T00:17:57.775Z,2.20
2018-04-13T00:18:57.966Z,2.80
2018-04-13T00:19:58.139Z,2.40
2018-04-13T00:20:58.310Z,2.70
2018-04-13T00:21:58.487Z,2.30
2018-04-13T00:22:58.663Z,2.20
2018-04-13T00:23:58.842Z,2.40
2018-04-13T00:24:59.017Z,2.40
2018-04-13T00:25:59.190Z,2.50
2018-04-13T00:26:59.362Z,2.20
2018-04-13T00:27:59.542Z,2.40
2018-04-13T00:28:59.722Z,2.20
2018-04-13T00:29:59.894Z,2.40
2018-04-13T00:31:00.068Z,2.50
2018-04-13T00:32:00.250Z,2.10
2018-04-13T00:33:00.428Z,2.50
2018-04-13T00:34:00.604Z,2.60
2018-04-13T00:35:00.782Z,2.30
2018-04-13T00:36:00.961Z,2.00
2018-04-13T00:37:01.139Z,2.30
2018-04-13T00:38:01.322Z,2.00
2018-04-13T00:39:01.497Z,2.10
2018-04-13T00:40:01.675Z,2.30
2018-04-13T00:41:01.856Z,1.90
2018-04-13T00:42:02.031Z,2.00
2018-04-13T00:43:02.211Z,2.30
2018-04-13T00:44:02.390Z,2.00
2018-04-13T00:45:02.566Z,2.00
2018-04-13T00:46:02.746Z,2.00
2018-04-13T00:47:02.920Z,2.20
2018-04-13T00:48:03.101Z,2.20
2018-04-13T00:49:03.278Z,1.80
2018-04-13T00:50:03.458Z,1.90
2018-04-13T00:51:03.635Z,2.00
2018-04-13T00:52:03.815Z,1.90
2018-04-13T00:53:03.997Z,2.10
2018-04-13T00:54:04.176Z,1.80
2018-04-13T00:55:04.359Z,2.00
2018-04-13T00:56:04.540Z,1.80
2018-04-13T00:57:04.716Z,1.90
2018-04-13T00:58:04.896Z,1.80
2018-04-13T00:59:05.070Z,2.10
2018-04-13T01:00:05.248Z,2.10
2018-04-13T01:01:05.426Z,2.00
2018-04-13T01:02:05.603Z,2.20
2018-04-13T01:03:05.789Z,1.90
2018-04-13T01:04:05.963Z,2.20
2018-04-13T01:05:06.145Z,1.80
2018-04-13T01:06:06.328Z,2.00
2018-04-13T01:07:06.502Z,2.30
2018-04-13T01:08:06.678Z,2.30
2018-04-13T01:09:06.860Z,2.40
2018-04-13T01:10:07.024Z,2.80
2018-04-13T01:11:07.200Z,3.20
2018-04-13T01:12:07.376Z,2.80
2018-04-13T01:13:07.555Z,3.00
2018-04-13T01:14:07.737Z,2.90
2018-04-13T01:15:07.911Z,3.00
2018-04-13T01:16:08.090Z,3.00
2018-04-13T01:17:08.271Z,2.60
2018-04-13T01:18:08.446Z,2.70
2018-04-13T01:19:08.628Z,2.20
2018-04-13T01:20:08.809Z,2.20
2018-04-13T01:21:08.982Z,2.10
2018-04-13T01:22:09.173Z,2.20
2018-04-13T01:23:09.358Z,2.40
2018-04-13T01:24:09.543Z,2.20
2018-04-13T01:25:09.723Z,2.10
2018-04-13T01:26:09.906Z,2.40
2018-04-13T01:27:10.081Z,2.30
2018-04-13T01:28:10.261Z,2.50
2018-04-13T01:29:10.431Z,2.40
2018-04-13T01:30:10.607Z,2.20
2018-04-13T01:31:10.783Z,2.10
2018-04-13T01:32:10.955Z,2.20
2018-04-13T01:33:11.135Z,2.20
2018-04-13T01:34:11.303Z,2.30
2018-04-13T01:35:11.477Z,2.30
2018-04-13T01:36:11.652Z,2.20
2018-04-13T01:37:11.834Z,2.30
2018-04-13T01:38:12.015Z,2.30
2018-04-13T01:39:12.194Z,2.30
2018-04-13T01:40:12.368Z,2.10
2018-04-13T01:41:12.544Z,2.10
2018-04-13T01:42:12.724Z,2.20
2018-04-13T01:43:12.894Z,2.30
2018-04-13T01:44:13.069Z,2.10
2018-04-13T01:45:13.248Z,2.10
2018-04-13T01:46:13.431Z,2.00
2018-04-13T01:47:13.611Z,2.40
2018-04-13T01:48:13.787Z,2.00
2018-04-13T01:49:13.967Z,2.00
2018-04-13T01:50:14.142Z,2.10
2018-04-13T01:51:14.326Z,2.20
2018-04-13T01:52:14.502Z,2.30
2018-04-13T01:53:14.672Z,2.40
2018-04-13T01:54:14.857Z,2.50
2018-04-13T01:55:15.047Z,2.10
2018-04-13T01:56:15.225Z,2.40
2018-04-13T01:57:15.404Z,2.40
2018-04-13T01:58:15.588Z,2.20
2018-04-13T01:59:15.777Z,2.40
2018-04-13T02:00:15.953Z,2.20
2018-04-13T02:01:16.127Z,2.30
2018-04-13T02:02:19.202Z,2.30
2018-04-13T02:03:16.411Z,2.60
2018-04-13T02:04:16.594Z,2.50
2018-04-13T02:05:16.767Z,2.10
2018-04-13T02:06:16.939Z,2.60
2018-04-13T02:07:17.108Z,2.10
2018-04-13T02:08:17.285Z,2.20
2018-04-13T02:09:17.459Z,2.00
2018-04-13T02:10:17.642Z,2.10
2018-04-13T02:11:17.821Z,2.20
2018-04-13T02:12:18.001Z,2.00
2018-04-13T02:13:18.179Z,2.40
2018-04-13T02:14:18.354Z,2.10
2018-04-13T02:15:18.527Z,2.30
2018-04-13T02:16:18.700Z,2.30
2018-04-13T02:17:18.886Z,2.20
2018-04-13T02:18:19.066Z,2.20
2018-04-13T02:19:19.238Z,2.30
2018-04-13T02:20:19.416Z,2.20
2018-04-13T02:21:19.594Z,2.30
2018-04-13T02:22:19.781Z,2.20
2018-04-13T02:23:19.947Z,2.20
2018-04-13T02:24:20.129Z,2.40
2018-04-13T02:25:20.314Z,2.20
2018-04-13T02:26:20.491Z,2.10
2018-04-13T02:27:20.678Z,2.40
2018-04-13T02:28:20.852Z,2.10
2018-04-13T02:29:21.032Z,2.50
2018-04-13T02:30:21.207Z,2.30
2018-04-13T02:31:21.376Z,2.00
2018-04-13T02:32:21.555Z,2.50
2018-04-13T02:33:21.733Z,2.30
2018-04-13T02:34:22.064Z,2.50
2018-04-13T02:35:22.085Z,2.40
2018-04-13T02:36:22.256Z,2.30
2018-04-13T02:37:22.435Z,2.50
2018-04-13T02:38:22.611Z,2.60
2018-04-13T02:39:22.788Z,2.60
2018-04-13T02:40:22.968Z,2.50
2018-04-13T02:41:23.145Z,2.60
2018-04-13T02:42:23.321Z,3.00
2018-04-13T02:43:23.497Z,2.70
2018-04-13T02:44:23.679Z,2.70
2018-04-13T02:45:23.859Z,2.70
2018-04-13T02:46:24.035Z,2.60
2018-04-13T02:47:24.214Z,2.50
2018-04-13T02:48:24.398Z,2.40
2018-04-13T02:49:24.577Z,2.40
2018-04-13T02:50:24.755Z,3.00
2018-04-13T02:51:24.975Z,2.80
2018-04-13T02:52:25.124Z,2.70
2018-04-13T02:53:25.305Z,2.70
2018-04-13T02:54:25.487Z,2.60
2018-04-13T02:55:25.661Z,2.80
2018-04-13T02:56:25.831Z,2.60
2018-04-13T02:57:26.009Z,2.60
2018-04-13T02:58:26.193Z,2.80
2018-04-13T02:59:26.368Z,2.50
2018-04-13T03:00:26.544Z,2.60
2018-04-13T03:01:26.723Z,2.80
2018-04-13T03:02:26.901Z,2.80
2018-04-13T03:03:27.076Z,3.30
2018-04-13T03:04:27.249Z,3.10
2018-04-13T03:05:27.430Z,3.00
2018-04-13T03:06:27.610Z,3.40
2018-04-13T03:07:27.785Z,3.20
2018-04-13T03:08:27.961Z,3.70
2018-04-13T03:09:28.138Z,3.10
2018-04-13T03:10:28.314Z,3.40
2018-04-13T03:11:28.495Z,3.30
2018-04-13T03:12:28.673Z,3.20
2018-04-13T03:13:28.861Z,3.30
2018-04-13T03:14:29.036Z,3.40
2018-04-13T03:15:29.207Z,3.20
2018-04-13T03:16:29.379Z,3.20
2018-04-13T03:17:29.555Z,3.60
2018-04-13T03:18:29.737Z,3.80
2018-04-13T03:19:29.911Z,3.60
2018-04-13T03:20:30.089Z,3.80
2018-04-13T03:21:30.266Z,3.50
2018-04-13T03:22:30.454Z,4.10
2018-04-13T03:23:30.628Z,3.50
2018-04-13T03:24:30.802Z,3.70
2018-04-13T03:25:30.974Z,3.90
2018-04-13T03:26:31.160Z,4.40
2018-04-13T03:27:31.335Z,3.90
2018-04-13T03:28:31.519Z,4.20
2018-04-13T03:29:31.712Z,4.00
2018-04-13T03:30:31.915Z,3.90
2018-04-13T03:31:32.076Z,3.60
2018-04-13T03:32:32.302Z,3.60
2018-04-13T03:33:32.446Z,3.40
2018-04-13T03:34:32.623Z,3.50
2018-04-13T03:35:32.811Z,3.60
2018-04-13T03:36:32.993Z,3.20
2018-04-13T03:37:33.164Z,3.40
2018-04-13T03:38:33.340Z,3.20
2018-04-13T03:39:33.520Z,3.50
2018-04-13T03:40:33.698Z,3.20
2018-04-13T03:41:33.872Z,3.40
2018-04-13T03:42:34.053Z,3.40
2018-04-13T03:43:34.233Z,3.30
2018-04-13T03:44:34.415Z,3.00
2018-04-13T03:45:34.593Z,3.30
2018-04-13T03:46:34.765Z,3.20
2018-04-13T03:47:34.944Z,3.10
2018-04-13T03:48:35.112Z,3.20
2018-04-13T03:49:35.288Z,3.60
2018-04-13T03:50:35.467Z,3.50
2018-04-13T03:51:35.653Z,3.20
2018-04-13T03:52:35.837Z,3.30
2018-04-13T03:53:36.009Z,3.30
2018-04-13T03:54:36.187Z,3.60
2018-04-13T03:55:37.160Z,3.40
2018-04-13T03:56:36.513Z,3.10
2018-04-13T03:57:36.694Z,3.30
2018-04-13T03:58:36.879Z,3.30
2018-04-13T03:59:37.052Z,3.60
2018-04-13T04:00:37.232Z,3.80
2018-04-13T04:01:37.409Z,4.20
2018-04-13T04:02:37.591Z,3.90
2018-04-13T04:03:37.763Z,4.40
2018-04-13T04:04:37.945Z,4.40
2018-04-13T04:05:38.111Z,4.20
2018-04-13T04:06:38.299Z,4.00
2018-04-13T04:07:38.469Z,4.50
2018-04-13T04:08:38.656Z,4.70
2018-04-13T04:09:38.833Z,4.50
2018-04-13T04:10:39.014Z,5.90
2018-04-13T04:11:39.198Z,6.10
2018-04-13T04:12:39.369Z,6.60
2018-04-13T04:13:39.555Z,6.60
2018-04-13T04:14:39.731Z,6.60
2018-04-13T04:15:39.907Z,6.50
2018-04-13T04:16:40.077Z,6.80
2018-04-13T04:17:40.255Z,6.20
2018-04-13T04:18:40.436Z,5.70
2018-04-13T04:19:40.612Z,5.70
2018-04-13T04:20:40.792Z,5.80
2018-04-13T04:21:40.978Z,5.80
2018-04-13T04:22:41.158Z,5.50
2018-04-13T04:23:41.337Z,5.50
2018-04-13T04:24:41.514Z,5.70
2018-04-13T04:25:41.691Z,5.70
2018-04-13T04:26:41.869Z,5.30
2018-04-13T04:27:42.041Z,5.00
2018-04-13T04:28:42.221Z,5.40
2018-04-13T04:29:44.444Z,5.30
2018-04-13T04:30:43.354Z,5.40
2018-04-13T04:31:45.460Z,4.80
2018-04-13T04:32:44.705Z,4.50
2018-04-13T04:33:45.282Z,4.40
2018-04-13T04:34:44.422Z,4.30
2018-04-13T04:35:43.431Z,4.50
2018-04-13T04:36:43.607Z,5.20
2018-04-13T04:37:43.788Z,4.90
2018-04-13T04:38:43.970Z,5.40
2018-04-13T04:39:44.158Z,5.40
2018-04-13T04:40:44.337Z,5.40
2018-04-13T04:41:44.519Z,5.30
2018-04-13T04:42:44.699Z,4.80
2018-04-13T04:43:44.988Z,4.90
2018-04-13T04:44:45.183Z,5.00
2018-04-13T04:45:45.303Z,4.90
2018-04-13T04:46:45.529Z,5.10
2018-04-13T04:47:45.667Z,4.70
2018-04-13T04:48:45.847Z,4.60
2018-04-13T04:49:46.031Z,5.50
2018-04-13T04:50:46.205Z,5.00
2018-04-13T04:51:46.390Z,5.30
2018-04-13T04:52:46.567Z,5.50
2018-04-13T04:53:46.751Z,5.10
2018-04-13T04:54:46.934Z,5.20
2018-04-13T04:55:47.121Z,4.80
2018-04-13T04:56:47.302Z,4.90
2018-04-13T04:57:47.471Z,5.00
2018-04-13T04:58:47.656Z,5.60
2018-04-13T04:59:47.863Z,5.50
2018-04-13T05:00:48.029Z,5.60
2018-04-13T05:01:48.241Z,5.60
2018-04-13T05:02:48.427Z,4.90
2018-04-13T05:03:48.601Z,5.20
2018-04-13T05:04:48.788Z,5.10
2018-04-13T05:05:48.961Z,5.00
2018-04-13T05:06:49.192Z,4.70
2018-04-13T05:07:49.337Z,5.10
2018-04-13T05:08:49.727Z,4.80
2018-04-13T05:09:49.744Z,4.80
2018-04-13T05:10:49.803Z,4.90
2018-04-13T05:11:50.000Z,5.00
2018-04-13T05:12:50.121Z,5.00
2018-04-13T05:13:50.311Z,4.80
2018-04-13T05:14:50.513Z,4.60
2018-04-13T05:15:50.713Z,4.70
2018-04-13T05:16:50.890Z,4.70
2018-04-13T05:17:51.068Z,4.40
2018-04-13T05:18:51.271Z,4.80
2018-04-13T05:19:51.453Z,5.50
2018-04-13T05:20:51.623Z,5.30
2018-04-13T05:21:51.803Z,5.30
2018-04-13T05:22:51.983Z,5.50
2018-04-13T05:23:52.164Z,5.10
2018-04-13T05:24:52.347Z,5.10
2018-04-13T05:25:52.525Z,5.10
2018-04-13T05:26:52.710Z,4.70
2018-04-13T05:27:52.893Z,4.80
2018-04-13T05:28:53.078Z,4.80
2018-04-13T05:29:53.257Z,4.40
2018-04-13T05:30:53.434Z,4.50
2018-04-13T05:31:53.608Z,5.10
2018-04-13T05:32:53.792Z,5.20
2018-04-13T05:33:53.969Z,4.80
2018-04-13T05:35:00.185Z,4.90
2018-04-13T05:35:55.044Z,4.60
2018-04-13T05:36:54.409Z,5.20
2018-04-13T05:37:54.595Z,4.70
2018-04-13T05:38:54.774Z,5.20
2018-04-13T05:39:54.950Z,4.90
2018-04-13T05:40:55.124Z,4.80
2018-04-13T05:41:55.315Z,5.10
2018-04-13T05:42:55.496Z,5.00
2018-04-13T05:43:55.672Z,5.30
2018-04-13T05:44:55.861Z,5.20
2018-04-13T05:45:56.041Z,5.00
2018-04-13T05:46:56.220Z,4.90
2018-04-13T05:47:56.401Z,4.70
2018-04-13T05:48:56.612Z,4.30
2018-04-13T05:49:56.782Z,4.40
2018-04-13T05:50:56.958Z,4.70
2018-04-13T05:51:57.133Z,4.50
2018-04-13T05:52:57.319Z,4.80
2018-04-13T05:53:57.496Z,4.80
2018-04-13T05:54:57.675Z,5.20
2018-04-13T05:55:57.863Z,5.10
2018-04-13T05:56:58.048Z,4.90
2018-04-13T05:57:58.221Z,5.40
2018-04-13T05:58:58.408Z,4.90
2018-04-13T05:59:58.593Z,5.40
2018-04-13T06:00:58.764Z,5.20
2018-04-13T06:01:58.944Z,4.60
2018-04-13T06:02:59.121Z,4.80
2018-04-13T06:03:59.304Z,5.00
2018-04-13T06:04:59.487Z,4.90
2018-04-13T06:05:59.678Z,5.10
2018-04-13T06:06:59.839Z,4.70
2018-04-13T06:08:00.025Z,4.20
2018-04-13T06:09:00.216Z,4.90
2018-04-13T06:10:00.412Z,5.00
2018-04-13T06:11:00.583Z,4.90
2018-04-13T06:12:00.760Z,4.90
2018-04-13T06:13:00.935Z,4.50
2018-04-13T06:14:01.121Z,4.80
2018-04-13T06:15:01.304Z,4.90
2018-04-13T06:16:01.487Z,4.80
2018-04-13T06:17:01.663Z,4.50
2018-04-13T06:18:01.842Z,4.40
2018-04-13T06:19:02.042Z,4.70
2018-04-13T06:20:02.237Z,4.70
2018-04-13T06:21:02.623Z,4.80
2018-04-13T06:22:02.553Z,4.30
2018-04-13T06:23:02.735Z,4.50
2018-04-13T06:24:02.929Z,4.90
2018-04-13T06:25:03.123Z,4.90
2018-04-13T06:26:03.424Z,4.30
2018-04-13T06:27:03.420Z,4.50
2018-04-13T06:28:03.598Z,4.90
2018-04-13T06:29:03.785Z,5.00
2018-04-13T06:30:05.339Z,5.00
2018-04-13T06:31:04.056Z,4.80
2018-04-13T06:32:04.238Z,5.10
2018-04-13T06:33:04.424Z,5.50
2018-04-13T06:34:04.590Z,5.60
2018-04-13T06:35:04.874Z,6.10
2018-04-13T06:36:05.070Z,5.60
2018-04-13T06:37:05.089Z,5.80
2018-04-13T06:38:05.269Z,6.20
2018-04-13T06:39:05.848Z,5.60
2018-04-13T06:40:05.908Z,5.80
2018-04-13T06:41:05.951Z,5.00
2018-04-13T06:42:06.257Z,5.30
2018-04-13T06:43:06.440Z,5.60
2018-04-13T06:44:06.573Z,5.60
2018-04-13T06:45:07.045Z,6.00
2018-04-13T06:46:07.229Z,5.80
2018-04-13T06:47:07.010Z,6.60
2018-04-13T06:48:07.153Z,7.10
2018-04-13T06:49:09.016Z,6.60
2018-04-13T06:50:07.436Z,6.50
2018-04-13T06:51:07.441Z,7.30
2018-04-13T06:52:07.417Z,6.80
2018-04-13T06:53:07.588Z,6.80
2018-04-13T06:54:07.775Z,6.50
2018-04-13T06:55:08.450Z,6.50
2018-04-13T06:56:08.125Z,6.70
2018-04-13T06:57:08.299Z,6.70
2018-04-13T06:58:08.591Z,6.80
2018-04-13T06:59:08.675Z,6.80
2018-04-13T07:00:08.833Z,6.60
2018-04-13T07:01:09.009Z,6.20
2018-04-13T07:02:09.183Z,6.90
2018-04-13T07:03:09.364Z,6.80
2018-04-13T07:04:09.550Z,7.10
2018-04-13T07:05:09.744Z,7.20
2018-04-13T07:06:09.916Z,7.40
2018-04-13T07:07:10.120Z,7.70
2018-04-13T07:08:10.339Z,7.40
2018-04-13T07:09:10.489Z,7.70
2018-04-13T07:10:10.729Z,7.60
2018-04-13T07:11:10.927Z,7.70
2018-04-13T07:12:11.080Z,7.50
2018-04-13T07:13:11.254Z,7.50
2018-04-13T07:14:11.504Z,7.30
2018-04-13T07:15:11.559Z,6.90
2018-04-13T07:16:11.734Z,6.60
2018-04-13T07:17:14.331Z,6.50
2018-04-13T07:18:12.407Z,6.90
2018-04-13T07:19:12.288Z,6.90
2018-04-13T07:20:12.460Z,6.20
2018-04-13T07:21:12.722Z,6.40
2018-04-13T07:22:12.854Z,6.80
2018-04-13T07:23:13.078Z,7.10
2018-04-13T07:24:13.263Z,6.80
2018-04-13T07:25:13.433Z,6.30
2018-04-13T07:26:13.983Z,6.60
2018-04-13T07:27:13.785Z,6.70
2018-04-13T07:28:13.956Z,6.40
2018-04-13T07:29:16.853Z,6.50
2018-04-13T07:30:14.375Z,6.70
2018-04-13T07:31:14.503Z,6.40
2018-04-13T07:32:15.287Z,6.60
2018-04-13T07:33:14.884Z,6.20
2018-04-13T07:34:15.100Z,6.40
2018-04-13T07:35:15.236Z,6.20
2018-04-13T07:36:15.418Z,6.50
2018-04-13T07:37:16.082Z,6.40
2018-04-13T07:38:15.764Z,5.80
2018-04-13T07:39:16.163Z,6.40
2018-04-13T07:40:16.157Z,6.40
2018-04-13T07:41:16.344Z,6.20
2018-04-13T07:42:16.514Z,6.60
2018-04-13T07:43:16.706Z,7.50
2018-04-13T07:44:16.893Z,7.70
2018-04-13T07:45:17.077Z,7.90
2018-04-13T07:46:17.771Z,8.70
2018-04-13T07:47:17.508Z,8.20
2018-04-13T07:48:18.118Z,8.60
2018-04-13T07:49:17.801Z,8.50
2018-04-13T07:50:17.977Z,8.80
2018-04-13T07:51:18.157Z,8.50
2018-04-13T07:53:18.524Z,7.00
2018-04-13T07:54:18.726Z,7.10
2018-04-13T07:55:18.882Z,7.40
2018-04-13T07:56:19.085Z,7.30
2018-04-13T07:57:19.265Z,7.30
2018-04-13T07:58:19.443Z,6.90
2018-04-13T07:59:19.740Z,7.70
2018-04-13T08:00:20.109Z,10.90
2018-04-13T08:01:19.932Z,9.90
2018-04-13T08:02:20.114Z,9.80
2018-04-13T08:03:20.299Z,9.50
2018-04-13T08:04:20.526Z,7.90
2018-04-13T08:05:20.591Z,7.20
2018-04-13T08:06:20.758Z,7.00
2018-04-13T08:07:20.985Z,6.70
2018-04-13T08:08:21.307Z,7.00
2018-04-13T08:09:21.296Z,6.20
2018-04-13T08:10:21.448Z,7.30
2018-04-13T08:11:21.789Z,9.40
2018-04-13T08:12:21.969Z,11.80
2018-04-13T08:13:22.266Z,17.20
2018-04-13T08:14:22.157Z,19.50
2018-04-13T08:15:22.345Z,22.20
2018-04-13T08:16:22.527Z,17.80
2018-04-13T08:17:22.722Z,14.80
2018-04-13T08:18:23.091Z,14.10
2018-04-13T08:19:23.664Z,12.70
2018-04-13T08:20:23.170Z,8.30
2018-04-13T08:21:23.719Z,7.30
2018-04-13T08:22:23.553Z,6.80
2018-04-13T08:23:23.737Z,7.10
2018-04-13T08:24:23.918Z,6.50
2018-04-13T08:25:24.103Z,6.60
2018-04-13T08:26:24.286Z,6.70
2018-04-13T08:27:24.474Z,8.50
2018-04-13T08:28:24.657Z,8.00
2018-04-13T08:29:24.857Z,8.00
2018-04-13T08:30:25.073Z,8.40
2018-04-13T08:31:25.254Z,9.10
2018-04-13T08:32:25.469Z,9.10
2018-04-13T08:33:25.649Z,8.80
2018-04-13T08:34:25.865Z,8.80
2018-04-13T08:35:26.035Z,9.20
2018-04-13T08:36:26.078Z,9.50
2018-04-13T08:37:26.299Z,11.40
2018-04-13T08:38:26.452Z,14.70
2018-04-13T08:39:26.683Z,13.20
2018-04-13T08:40:26.850Z,11.30
2018-04-13T08:41:27.024Z,11.10
2018-04-13T08:42:27.207Z,12.50
2018-04-13T08:43:27.411Z,13.20
2018-04-13T08:44:27.576Z,13.30
2018-04-13T08:45:27.736Z,11.80
2018-04-13T08:46:27.912Z,11.50
2018-04-13T08:47:28.135Z,9.70
2018-04-13T08:48:28.380Z,9.90
2018-04-13T08:49:28.478Z,9.40
2018-04-13T08:50:28.627Z,10.30
2018-04-13T08:51:28.806Z,10.30
2018-04-13T08:52:28.995Z,10.70
2018-04-13T08:53:29.190Z,10.90
2018-04-13T08:54:29.366Z,10.50
2018-04-13T08:55:29.559Z,10.10
2018-04-13T08:56:29.731Z,10.80
2018-04-13T08:57:29.924Z,10.40
2018-04-13T08:58:30.113Z,11.10
2018-04-13T08:59:30.788Z,10.80
2018-04-13T09:00:30.848Z,10.90
2018-04-13T09:01:30.637Z,10.80
2018-04-13T09:02:30.831Z,10.90
2018-04-13T09:03:31.009Z,11.40
2018-04-13T09:04:31.405Z,11.40
2018-04-13T09:05:31.512Z,12.80
2018-04-13T09:06:33.547Z,11.50
2018-04-13T09:07:31.684Z,12.50
2018-04-13T09:08:31.924Z,12.40
2018-04-13T09:09:32.629Z,11.60
2018-04-13T09:10:32.306Z,11.90
2018-04-13T09:11:32.347Z,12.70
2018-04-13T09:12:32.732Z,12.00
2018-04-13T09:13:32.735Z,12.50
2018-04-13T09:14:32.932Z,13.50
2018-04-13T09:15:33.107Z,13.60
2018-04-13T09:16:33.297Z,13.80
2018-04-13T09:17:33.494Z,13.20
2018-04-13T09:18:33.708Z,12.20
2018-04-13T09:19:34.101Z,12.70
2018-04-13T09:20:34.731Z,12.70
2018-04-13T09:21:34.303Z,13.00
2018-04-13T09:22:34.473Z,13.70
2018-04-13T09:23:34.659Z,13.70
2018-04-13T09:24:34.852Z,14.50
2018-04-13T09:25:35.026Z,12.90
2018-04-13T09:26:35.214Z,14.40
2018-04-13T09:27:35.392Z,15.00
2018-04-13T09:28:35.573Z,14.60
2018-04-13T09:29:35.785Z,15.30
2018-04-13T09:30:35.986Z,15.30
2018-04-13T09:31:36.160Z,15.20
2018-04-13T09:32:36.324Z,15.90
2018-04-13T09:33:36.504Z,17.20
2018-04-13T09:34:36.693Z,17.10
2018-04-13T09:35:40.955Z,17.40
2018-04-13T09:36:37.105Z,17.40
2018-04-13T09:37:37.294Z,17.90
2018-04-13T09:38:37.573Z,17.30
2018-04-13T09:39:37.621Z,17.40
2018-04-13T09:40:37.801Z,18.80
2018-04-13T09:41:37.982Z,18.60
2018-04-13T09:42:38.160Z,19.10
2018-04-13T09:43:38.347Z,20.20
2018-04-13T09:44:38.539Z,20.60
2018-04-13T09:45:38.719Z,20.40
2018-04-13T09:46:38.899Z,20.10
2018-04-13T09:47:39.079Z,20.80
2018-04-13T09:48:39.267Z,22.90
2018-04-13T09:49:39.450Z,22.40
2018-04-13T09:50:39.628Z,21.50
2018-04-13T09:51:39.805Z,21.60
2018-04-13T09:52:39.994Z,23.60
2018-04-13T09:53:40.443Z,26.60
2018-04-13T09:54:40.407Z,28.90
2018-04-13T09:55:40.584Z,30.40
2018-04-13T09:56:40.758Z,31.30
2018-04-13T09:57:41.879Z,31.00
2018-04-13T09:58:41.472Z,31.60
2018-04-13T09:59:41.558Z,32.80
2018-04-13T10:00:41.492Z,35.60
2018-04-13T10:01:41.671Z,37.20
2018-04-13T10:02:43.782Z,38.00
2018-04-13T10:03:41.975Z,37.10
2018-04-13T10:04:42.225Z,36.60
2018-04-13T10:05:42.267Z,37.30
2018-04-13T10:06:42.458Z,38.00
2018-04-13T10:07:42.725Z,36.10
2018-04-13T10:08:42.869Z,36.10
2018-04-13T10:09:43.041Z,37.20
2018-04-13T10:10:43.213Z,38.40
2018-04-13T10:11:43.395Z,37.90
2018-04-13T10:12:43.575Z,36.70
2018-04-13T10:13:43.758Z,37.60
2018-04-13T10:14:43.938Z,38.00
2018-04-13T10:15:44.139Z,37.50
2018-04-13T10:16:44.288Z,38.70
2018-04-13T10:17:44.480Z,37.40
2018-04-13T10:18:44.710Z,39.70
2018-04-13T10:19:44.769Z,38.00
2018-04-13T10:20:44.971Z,39.20
2018-04-13T10:21:45.383Z,37.50
2018-04-13T10:22:45.279Z,36.80
2018-04-13T10:23:45.478Z,36.80
2018-04-13T10:24:45.644Z,37.20
2018-04-13T10:25:45.828Z,36.70
2018-04-13T10:26:46.012Z,34.50
2018-04-13T10:27:46.192Z,35.80
2018-04-13T10:28:46.390Z,37.60
2018-04-13T10:29:46.593Z,38.70
2018-04-13T10:30:46.771Z,38.20
2018-04-13T10:31:46.960Z,36.90
2018-04-13T10:32:47.142Z,38.00
2018-04-13T10:33:47.344Z,39.20
2018-04-13T10:34:47.529Z,39.50
2018-04-13T10:35:47.699Z,39.30
2018-04-13T10:36:47.877Z,41.70
2018-04-13T10:37:48.057Z,42.10
2018-04-13T10:38:48.242Z,42.30
2018-04-13T10:39:48.420Z,43.70
2018-04-13T10:40:48.595Z,42.60
2018-04-13T10:41:48.776Z,43.90
2018-04-13T10:42:50.725Z,43.50
2018-04-13T10:43:49.089Z,42.90
2018-04-13T10:44:49.267Z,43.90
2018-04-13T10:45:49.456Z,43.90
2018-04-13T10:46:49.620Z,44.40
2018-04-13T10:47:49.798Z,43.40
2018-04-13T10:48:49.981Z,42.10
2018-04-13T10:49:50.160Z,41.80
2018-04-13T10:50:50.335Z,40.30
2018-04-13T10:51:50.513Z,39.60
2018-04-13T10:52:50.691Z,40.20
2018-04-13T10:53:51.061Z,40.10
2018-04-13T10:54:51.053Z,39.20
2018-04-13T10:55:51.236Z,37.30
2018-04-13T10:56:51.429Z,36.60
2018-04-13T10:57:51.606Z,36.30
2018-04-13T10:58:51.780Z,33.10
2018-04-13T10:59:51.958Z,33.20
2018-04-13T11:00:52.155Z,32.50
2018-04-13T11:01:52.345Z,32.10
2018-04-13T11:02:52.529Z,33.50
2018-04-13T11:03:53.099Z,33.90
2018-04-13T11:04:52.942Z,31.30
2018-04-13T11:05:53.184Z,30.40
2018-04-13T11:06:53.355Z,30.10
2018-04-13T11:07:53.548Z,31.40
2018-04-13T11:08:55.497Z,29.70
2018-04-13T11:09:53.835Z,28.70
2018-04-13T11:10:54.009Z,29.80
2018-04-13T11:11:54.194Z,27.80
2018-04-13T11:12:54.374Z,27.60
2018-04-13T11:13:54.910Z,27.20
2018-04-13T11:14:54.704Z,26.90
2018-04-13T11:15:54.981Z,28.90
2018-04-13T11:16:55.605Z,27.90
2018-04-13T11:17:55.181Z,27.70
2018-04-13T11:18:55.351Z,28.40
2018-04-13T11:19:55.530Z,30.40
2018-04-13T11:20:55.731Z,30.30
2018-04-13T11:21:55.922Z,30.80
2018-04-13T11:22:56.131Z,31.40
2018-04-13T11:23:56.338Z,31.60
2018-04-13T11:24:56.511Z,32.00
2018-04-13T11:25:56.697Z,32.50
2018-04-13T11:26:56.923Z,34.30
2018-04-13T11:27:56.983Z,33.90
2018-04-13T11:28:57.726Z,34.10
2018-04-13T11:29:57.429Z,35.90
2018-04-13T11:30:57.502Z,36.70
2018-04-13T11:31:57.688Z,37.40
2018-04-13T11:32:57.868Z,38.80
2018-04-13T11:33:58.693Z,39.10
2018-04-13T11:34:58.252Z,38.60
2018-04-13T11:35:58.439Z,40.00
2018-04-13T11:36:58.644Z,38.80
2018-04-13T11:37:58.826Z,39.20
2018-04-13T11:38:59.171Z,40.20
2018-04-13T11:39:59.195Z,40.80
2018-04-13T11:41:00.621Z,40.70
2018-04-13T11:42:00.797Z,40.00
2018-04-13T11:43:00.985Z,38.80
2018-04-13T11:44:00.178Z,39.10
2018-04-13T11:45:00.206Z,39.00
2018-04-13T11:46:00.276Z,38.10
2018-04-13T11:47:01.940Z,40.40
2018-04-13T11:48:02.364Z,39.60
2018-04-13T11:49:00.733Z,39.30
2018-04-13T11:50:00.914Z,37.50
2018-04-13T11:51:01.167Z,39.30
2018-04-13T11:52:01.326Z,38.30
2018-04-13T11:53:01.578Z,38.20
2018-04-13T11:54:01.622Z,39.90
2018-04-13T11:55:01.808Z,39.00
2018-04-13T11:56:01.989Z,38.30
2018-04-13T11:57:02.191Z,38.70
2018-04-13T11:58:02.403Z,40.80
2018-04-13T11:59:02.605Z,40.70
2018-04-13T12:00:02.766Z,40.80
2018-04-13T12:01:03.008Z,41.60
2018-04-13T12:02:03.068Z,43.30
2018-04-13T12:03:03.244Z,40.80
2018-04-13T12:04:03.432Z,41.20
2018-04-13T12:05:03.608Z,42.30
2018-04-13T12:06:03.793Z,43.10
2018-04-13T12:07:03.974Z,43.30
2018-04-13T12:08:04.739Z,42.10
2018-04-13T12:09:04.265Z,45.40
2018-04-13T12:10:04.470Z,45.30
2018-04-13T12:11:04.627Z,45.30
2018-04-13T12:12:04.794Z,45.40
2018-04-13T12:13:04.976Z,44.10
2018-04-13T12:14:05.161Z,43.50
2018-04-13T12:15:05.468Z,43.20
2018-04-13T12:16:05.886Z,46.90
2018-04-13T12:17:05.696Z,46.60
2018-04-13T12:18:05.937Z,47.20
2018-04-13T12:19:06.208Z,46.70
2018-04-13T12:20:06.133Z,47.20
2018-04-13T12:21:06.314Z,45.50
2018-04-13T12:22:06.491Z,45.20
2018-04-13T12:23:06.671Z,44.70
2018-04-13T12:24:06.853Z,43.90
2018-04-13T12:25:07.030Z,46.40
2018-04-13T12:26:07.213Z,44.60
2018-04-13T12:27:07.383Z,46.80
2018-04-13T12:28:07.559Z,44.70
2018-04-13T12:29:07.743Z,45.80
2018-04-13T12:30:07.939Z,43.60
2018-04-13T12:31:08.115Z,43.50
2018-04-13T12:32:08.297Z,43.60
2018-04-13T12:33:08.562Z,45.70
2018-04-13T12:34:08.591Z,46.30
2018-04-13T12:35:08.770Z,45.40
2018-04-13T12:36:08.983Z,45.20
2018-04-13T12:37:09.195Z,46.50
2018-04-13T12:38:09.410Z,45.60
2018-04-13T12:39:10.149Z,45.00
2018-04-13T12:40:10.073Z,46.70
2018-04-13T12:41:10.248Z,47.10
2018-04-13T12:42:10.356Z,46.10
2018-04-13T12:43:10.570Z,45.40
2018-04-13T12:44:10.934Z,43.50
2018-04-13T12:45:10.921Z,42.80
2018-04-13T12:46:10.745Z,42.00
2018-04-13T12:47:10.987Z,44.20
2018-04-13T12:48:11.198Z,43.80
2018-04-13T12:49:11.258Z,44.90
2018-04-13T12:50:11.461Z,44.40
2018-04-13T12:51:12.698Z,43.60
2018-04-13T12:52:12.626Z,45.30
2018-04-13T12:53:12.909Z,46.60
2018-04-13T12:54:12.567Z,46.90
2018-04-13T12:55:13.378Z,47.30
2018-04-13T12:56:13.172Z,43.20
2018-04-13T12:57:13.453Z,44.10
2018-04-13T12:58:13.546Z,45.10
2018-04-13T12:59:13.589Z,45.60
2018-04-13T13:00:14.064Z,43.80
2018-04-13T13:01:14.095Z,42.10
2018-04-13T13:02:14.003Z,41.40
2018-04-13T13:03:14.158Z,42.10
2018-04-13T13:04:14.152Z,43.40
2018-04-13T13:05:15.453Z,44.30
2018-04-13T13:06:14.183Z,44.90
2018-04-13T13:07:14.382Z,43.20
2018-04-13T13:08:14.611Z,42.10
2018-04-13T13:09:14.783Z,40.20
2018-04-13T13:10:14.975Z,43.40
2018-04-13T13:11:15.143Z,43.40
2018-04-13T13:12:15.320Z,43.50
2018-04-13T13:13:15.508Z,44.80